sensor_id;sensor_type;location;lat;lon;timestamp;P1;durP1;ratioP1;P2;durP2;ratioP2
12441;SDS011;6285;48.804;9.220;2022-11-20T00:01:45;15.63;;;11.52;;
12441;SDS011;6285;48.804;9.220;2022-11-20T00:04:12;15.10;;;10.50;;
12441;SDS011;6285;48.804;9.220;2022-11-20T00:06:40;16.92;;;11.48;;
12441;SDS011;6285;48.804;9.220;2022-11-20T00:09:09;13.20;;;10.75;;
12441;SDS011;6285;48.804;9.220;2022-11-20T00:11:36;15.07;;;10.57;;
12441;SDS011;6285;48.804;9.220;2022-11-20T00:14:03;15.50;;;11.15;;
12441;SDS011;6285;48.804;9.220;2022-11-20T00:16:31;14.23;;;10.55;;
12441;SDS011;6285;48.804;9.220;2022-11-20T00:19:00;15.68;;;12.18;;
12441;SDS011;6285;48.804;9.220;2022-11-20T00:21:27;17.13;;;10.88;;
12441;SDS011;6285;48.804;9.220;2022-11-20T00:23:55;14.55;;;10.98;;
12441;SDS011;6285;48.804;9.220;2022-11-20T00:26:23;16.35;;;11.70;;
12441;SDS011;6285;48.804;9.220;2022-11-20T00:28:52;14.93;;;10.75;;
12441;SDS011;6285;48.804;9.220;2022-11-20T00:31:19;16.58;;;11.00;;
12441;SDS011;6285;48.804;9.220;2022-11-20T00:33:57;17.33;;;10.65;;
12441;SDS011;6285;48.804;9.220;2022-11-20T00:36:37;14.68;;;11.10;;
12441;SDS011;6285;48.804;9.220;2022-11-20T00:39:08;14.60;;;11.32;;
12441;SDS011;6285;48.804;9.220;2022-11-20T00:41:38;13.70;;;11.05;;
12441;SDS011;6285;48.804;9.220;2022-11-20T00:44:05;14.75;;;10.88;;
12441;SDS011;6285;48.804;9.220;2022-11-20T00:46:46;14.23;;;11.10;;
12441;SDS011;6285;48.804;9.220;2022-11-20T00:49:19;16.13;;;10.73;;
12441;SDS011;6285;48.804;9.220;2022-11-20T00:51:50;15.35;;;11.10;;
12441;SDS011;6285;48.804;9.220;2022-11-20T00:54:24;13.55;;;10.27;;
12441;SDS011;6285;48.804;9.220;2022-11-20T00:57:09;15.98;;;10.90;;
12441;SDS011;6285;48.804;9.220;2022-11-20T00:59:48;15.38;;;11.68;;
12441;SDS011;6285;48.804;9.220;2022-11-20T01:02:24;15.35;;;11.32;;
12441;SDS011;6285;48.804;9.220;2022-11-20T01:04:55;13.80;;;10.30;;
12441;SDS011;6285;48.804;9.220;2022-11-20T01:07:35;13.30;;;10.55;;
12441;SDS011;6285;48.804;9.220;2022-11-20T01:10:14;12.88;;;10.02;;
12441;SDS011;6285;48.804;9.220;2022-11-20T01:12:44;13.75;;;10.82;;
12441;SDS011;6285;48.804;9.220;2022-11-20T01:15:33;13.77;;;10.02;;
12441;SDS011;6285;48.804;9.220;2022-11-20T01:18:01;14.82;;;10.55;;
12441;SDS011;6285;48.804;9.220;2022-11-20T01:20:42;14.75;;;10.35;;
12441;SDS011;6285;48.804;9.220;2022-11-20T01:23:13;12.10;;;10.02;;
12441;SDS011;6285;48.804;9.220;2022-11-20T01:25:43;13.77;;;9.88;;
12441;SDS011;6285;48.804;9.220;2022-11-20T01:28:10;14.85;;;10.02;;
12441;SDS011;6285;48.804;9.220;2022-11-20T01:30:37;13.75;;;10.10;;
12441;SDS011;6285;48.804;9.220;2022-11-20T01:33:07;11.18;;;9.48;;
12441;SDS011;6285;48.804;9.220;2022-11-20T01:35:34;13.15;;;9.60;;
12441;SDS011;6285;48.804;9.220;2022-11-20T01:38:04;13.23;;;10.30;;
12441;SDS011;6285;48.804;9.220;2022-11-20T01:40:32;11.98;;;10.00;;
12441;SDS011;6285;48.804;9.220;2022-11-20T01:43:01;12.55;;;9.98;;
12441;SDS011;6285;48.804;9.220;2022-11-20T01:45:52;13.93;;;10.52;;
12441;SDS011;6285;48.804;9.220;2022-11-20T01:48:28;12.45;;;9.93;;
12441;SDS011;6285;48.804;9.220;2022-11-20T01:50:59;13.05;;;9.70;;
12441;SDS011;6285;48.804;9.220;2022-11-20T01:53:28;13.63;;;10.23;;
12441;SDS011;6285;48.804;9.220;2022-11-20T01:56:00;12.02;;;9.43;;
12441;SDS011;6285;48.804;9.220;2022-11-20T01:58:30;12.63;;;9.73;;
12441;SDS011;6285;48.804;9.220;2022-11-20T02:01:00;14.25;;;9.80;;
12441;SDS011;6285;48.804;9.220;2022-11-20T02:03:27;12.75;;;9.73;;
12441;SDS011;6285;48.804;9.220;2022-11-20T02:05:55;10.95;;;9.52;;
12441;SDS011;6285;48.804;9.220;2022-11-20T02:08:24;13.80;;;10.15;;
12441;SDS011;6285;48.804;9.220;2022-11-20T02:10:51;13.90;;;9.82;;
12441;SDS011;6285;48.804;9.220;2022-11-20T02:13:20;11.38;;;9.50;;
12441;SDS011;6285;48.804;9.220;2022-11-20T02:16:04;12.15;;;9.90;;
12441;SDS011;6285;48.804;9.220;2022-11-20T02:18:32;11.68;;;9.40;;
12441;SDS011;6285;48.804;9.220;2022-11-20T02:21:02;12.10;;;9.15;;
12441;SDS011;6285;48.804;9.220;2022-11-20T02:23:36;12.80;;;9.50;;
12441;SDS011;6285;48.804;9.220;2022-11-20T02:26:07;11.57;;;9.30;;
12441;SDS011;6285;48.804;9.220;2022-11-20T02:28:37;11.48;;;9.23;;
12441;SDS011;6285;48.804;9.220;2022-11-20T02:31:05;12.27;;;10.20;;
12441;SDS011;6285;48.804;9.220;2022-11-20T02:33:32;8.93;;;7.50;;
12441;SDS011;6285;48.804;9.220;2022-11-20T02:35:59;9.75;;;6.72;;
12441;SDS011;6285;48.804;9.220;2022-11-20T02:38:27;7.32;;;6.32;;
12441;SDS011;6285;48.804;9.220;2022-11-20T02:40:54;6.97;;;4.82;;
12441;SDS011;6285;48.804;9.220;2022-11-20T02:43:22;9.32;;;5.32;;
12441;SDS011;6285;48.804;9.220;2022-11-20T02:45:49;5.47;;;4.13;;
12441;SDS011;6285;48.804;9.220;2022-11-20T02:48:17;5.60;;;4.75;;
12441;SDS011;6285;48.804;9.220;2022-11-20T02:50:44;4.72;;;3.97;;
12441;SDS011;6285;48.804;9.220;2022-11-20T02:53:11;6.75;;;3.53;;
12441;SDS011;6285;48.804;9.220;2022-11-20T02:55:38;4.38;;;3.25;;
12441;SDS011;6285;48.804;9.220;2022-11-20T02:58:05;4.63;;;3.60;;
12441;SDS011;6285;48.804;9.220;2022-11-20T03:00:33;3.92;;;3.05;;
12441;SDS011;6285;48.804;9.220;2022-11-20T03:03:01;4.15;;;3.42;;
12441;SDS011;6285;48.804;9.220;2022-11-20T03:05:28;4.30;;;3.45;;
12441;SDS011;6285;48.804;9.220;2022-11-20T03:07:55;10.20;;;3.90;;
12441;SDS011;6285;48.804;9.220;2022-11-20T03:10:22;3.88;;;2.72;;
12441;SDS011;6285;48.804;9.220;2022-11-20T03:12:52;4.03;;;2.90;;
12441;SDS011;6285;48.804;9.220;2022-11-20T03:15:19;3.95;;;3.13;;
12441;SDS011;6285;48.804;9.220;2022-11-20T03:17:48;4.65;;;2.70;;
12441;SDS011;6285;48.804;9.220;2022-11-20T03:20:14;6.18;;;3.15;;
12441;SDS011;6285;48.804;9.220;2022-11-20T03:22:42;4.93;;;3.28;;
12441;SDS011;6285;48.804;9.220;2022-11-20T03:25:09;4.15;;;3.25;;
12441;SDS011;6285;48.804;9.220;2022-11-20T03:27:36;4.18;;;3.10;;
12441;SDS011;6285;48.804;9.220;2022-11-20T03:30:03;3.83;;;3.42;;
12441;SDS011;6285;48.804;9.220;2022-11-20T03:32:31;4.45;;;3.65;;
12441;SDS011;6285;48.804;9.220;2022-11-20T03:34:59;4.15;;;3.28;;
12441;SDS011;6285;48.804;9.220;2022-11-20T03:37:26;6.88;;;3.30;;
12441;SDS011;6285;48.804;9.220;2022-11-20T03:39:54;3.72;;;3.05;;
12441;SDS011;6285;48.804;9.220;2022-11-20T03:42:21;3.47;;;3.15;;
12441;SDS011;6285;48.804;9.220;2022-11-20T03:45:06;3.42;;;3.13;;
12441;SDS011;6285;48.804;9.220;2022-11-20T03:47:33;3.55;;;3.10;;
12441;SDS011;6285;48.804;9.220;2022-11-20T03:50:02;4.72;;;3.55;;
12441;SDS011;6285;48.804;9.220;2022-11-20T03:52:29;5.90;;;3.33;;
12441;SDS011;6285;48.804;9.220;2022-11-20T03:54:56;3.75;;;3.30;;
12441;SDS011;6285;48.804;9.220;2022-11-20T03:57:23;3.50;;;3.05;;
12441;SDS011;6285;48.804;9.220;2022-11-20T03:59:50;4.50;;;3.10;;
12441;SDS011;6285;48.804;9.220;2022-11-20T04:02:17;4.07;;;3.33;;
12441;SDS011;6285;48.804;9.220;2022-11-20T04:04:45;4.72;;;2.85;;
12441;SDS011;6285;48.804;9.220;2022-11-20T04:07:13;3.85;;;3.30;;
12441;SDS011;6285;48.804;9.220;2022-11-20T04:09:40;3.00;;;2.70;;
12441;SDS011;6285;48.804;9.220;2022-11-20T04:12:07;3.33;;;3.03;;
12441;SDS011;6285;48.804;9.220;2022-11-20T04:14:34;4.32;;;3.20;;
12441;SDS011;6285;48.804;9.220;2022-11-20T04:17:03;4.45;;;3.80;;
12441;SDS011;6285;48.804;9.220;2022-11-20T04:19:29;4.35;;;3.50;;
12441;SDS011;6285;48.804;9.220;2022-11-20T04:21:56;4.50;;;3.22;;
12441;SDS011;6285;48.804;9.220;2022-11-20T04:24:25;5.03;;;3.65;;
12441;SDS011;6285;48.804;9.220;2022-11-20T04:26:53;5.20;;;3.47;;
12441;SDS011;6285;48.804;9.220;2022-11-20T04:29:20;3.15;;;2.85;;
12441;SDS011;6285;48.804;9.220;2022-11-20T04:31:47;4.30;;;3.40;;
12441;SDS011;6285;48.804;9.220;2022-11-20T04:34:14;3.50;;;3.20;;
12441;SDS011;6285;48.804;9.220;2022-11-20T04:36:41;3.17;;;2.78;;
12441;SDS011;6285;48.804;9.220;2022-11-20T04:39:11;3.58;;;3.28;;
12441;SDS011;6285;48.804;9.220;2022-11-20T04:41:40;4.68;;;3.35;;
12441;SDS011;6285;48.804;9.220;2022-11-20T04:44:07;4.25;;;3.10;;
12441;SDS011;6285;48.804;9.220;2022-11-20T04:46:35;3.63;;;3.15;;
12441;SDS011;6285;48.804;9.220;2022-11-20T04:49:03;3.50;;;3.10;;
12441;SDS011;6285;48.804;9.220;2022-11-20T04:51:31;4.65;;;3.50;;
12441;SDS011;6285;48.804;9.220;2022-11-20T04:53:57;3.45;;;3.15;;
12441;SDS011;6285;48.804;9.220;2022-11-20T04:56:24;3.85;;;3.10;;
12441;SDS011;6285;48.804;9.220;2022-11-20T04:58:53;5.32;;;3.53;;
12441;SDS011;6285;48.804;9.220;2022-11-20T05:01:20;4.22;;;3.58;;
12441;SDS011;6285;48.804;9.220;2022-11-20T05:03:48;3.90;;;3.50;;
12441;SDS011;6285;48.804;9.220;2022-11-20T05:06:16;4.10;;;3.60;;
12441;SDS011;6285;48.804;9.220;2022-11-20T05:08:44;3.53;;;3.22;;
12441;SDS011;6285;48.804;9.220;2022-11-20T05:11:12;4.07;;;3.45;;
12441;SDS011;6285;48.804;9.220;2022-11-20T05:13:40;3.45;;;3.10;;
12441;SDS011;6285;48.804;9.220;2022-11-20T05:16:08;3.60;;;3.22;;
12441;SDS011;6285;48.804;9.220;2022-11-20T05:18:37;8.75;;;3.55;;
12441;SDS011;6285;48.804;9.220;2022-11-20T05:21:05;4.93;;;3.45;;
12441;SDS011;6285;48.804;9.220;2022-11-20T05:23:32;3.58;;;3.15;;
12441;SDS011;6285;48.804;9.220;2022-11-20T05:26:00;3.95;;;3.22;;
12441;SDS011;6285;48.804;9.220;2022-11-20T05:28:28;3.90;;;3.47;;
12441;SDS011;6285;48.804;9.220;2022-11-20T05:30:56;3.45;;;3.15;;
12441;SDS011;6285;48.804;9.220;2022-11-20T05:33:24;3.60;;;3.30;;
12441;SDS011;6285;48.804;9.220;2022-11-20T05:35:51;4.22;;;3.45;;
12441;SDS011;6285;48.804;9.220;2022-11-20T05:38:18;4.38;;;3.28;;
12441;SDS011;6285;48.804;9.220;2022-11-20T05:40:45;4.75;;;3.38;;
12441;SDS011;6285;48.804;9.220;2022-11-20T05:43:12;4.18;;;3.10;;
12441;SDS011;6285;48.804;9.220;2022-11-20T05:45:39;3.33;;;3.03;;
12441;SDS011;6285;48.804;9.220;2022-11-20T05:48:06;4.20;;;3.22;;
12441;SDS011;6285;48.804;9.220;2022-11-20T05:50:34;3.28;;;2.97;;
12441;SDS011;6285;48.804;9.220;2022-11-20T05:53:02;4.28;;;3.22;;
12441;SDS011;6285;48.804;9.220;2022-11-20T05:55:29;3.28;;;2.95;;
12441;SDS011;6285;48.804;9.220;2022-11-20T05:57:55;3.25;;;2.95;;
12441;SDS011;6285;48.804;9.220;2022-11-20T06:00:23;3.53;;;2.92;;
12441;SDS011;6285;48.804;9.220;2022-11-20T06:02:50;5.75;;;3.17;;
12441;SDS011;6285;48.804;9.220;2022-11-20T06:05:17;3.10;;;2.70;;
12441;SDS011;6285;48.804;9.220;2022-11-20T06:07:46;5.70;;;2.78;;
12441;SDS011;6285;48.804;9.220;2022-11-20T06:10:13;3.25;;;2.67;;
12441;SDS011;6285;48.804;9.220;2022-11-20T06:12:40;3.28;;;2.70;;
12441;SDS011;6285;48.804;9.220;2022-11-20T06:15:08;2.95;;;2.65;;
12441;SDS011;6285;48.804;9.220;2022-11-20T06:17:35;3.78;;;3.00;;
12441;SDS011;6285;48.804;9.220;2022-11-20T06:20:03;3.30;;;2.80;;
12441;SDS011;6285;48.804;9.220;2022-11-20T06:22:30;3.40;;;3.10;;
12441;SDS011;6285;48.804;9.220;2022-11-20T06:24:59;3.95;;;2.90;;
12441;SDS011;6285;48.804;9.220;2022-11-20T06:27:26;2.63;;;2.40;;
12441;SDS011;6285;48.804;9.220;2022-11-20T06:29:54;4.63;;;2.60;;
12441;SDS011;6285;48.804;9.220;2022-11-20T06:32:21;2.75;;;2.35;;
12441;SDS011;6285;48.804;9.220;2022-11-20T06:34:48;2.90;;;2.60;;
12441;SDS011;6285;48.804;9.220;2022-11-20T06:37:15;2.92;;;2.53;;
12441;SDS011;6285;48.804;9.220;2022-11-20T06:39:42;3.40;;;2.45;;
12441;SDS011;6285;48.804;9.220;2022-11-20T06:42:10;3.53;;;2.80;;
12441;SDS011;6285;48.804;9.220;2022-11-20T06:44:37;3.20;;;2.58;;
12441;SDS011;6285;48.804;9.220;2022-11-20T06:47:05;2.97;;;2.65;;
12441;SDS011;6285;48.804;9.220;2022-11-20T06:49:32;2.85;;;2.38;;
12441;SDS011;6285;48.804;9.220;2022-11-20T06:52:02;3.45;;;2.67;;
12441;SDS011;6285;48.804;9.220;2022-11-20T06:54:29;2.70;;;2.45;;
12441;SDS011;6285;48.804;9.220;2022-11-20T06:56:56;2.38;;;2.17;;
12441;SDS011;6285;48.804;9.220;2022-11-20T06:59:25;3.80;;;2.40;;
12441;SDS011;6285;48.804;9.220;2022-11-20T07:01:52;3.53;;;2.53;;
12441;SDS011;6285;48.804;9.220;2022-11-20T07:07:46;2.95;;;2.20;;
12441;SDS011;6285;48.804;9.220;2022-11-20T07:10:34;4.65;;;2.15;;
12441;SDS011;6285;48.804;9.220;2022-11-20T07:13:19;4.05;;;2.28;;
12441;SDS011;6285;48.804;9.220;2022-11-20T07:21:55;2.72;;;2.42;;
12441;SDS011;6285;48.804;9.220;2022-11-20T07:24:22;4.20;;;2.40;;
12441;SDS011;6285;48.804;9.220;2022-11-20T07:26:49;5.05;;;2.28;;
12441;SDS011;6285;48.804;9.220;2022-11-20T07:29:17;4.93;;;2.80;;
12441;SDS011;6285;48.804;9.220;2022-11-20T07:31:44;2.50;;;2.30;;
12441;SDS011;6285;48.804;9.220;2022-11-20T07:34:11;2.95;;;2.08;;
12441;SDS011;6285;48.804;9.220;2022-11-20T07:36:39;2.28;;;2.08;;
12441;SDS011;6285;48.804;9.220;2022-11-20T07:39:07;2.55;;;2.17;;
12441;SDS011;6285;48.804;9.220;2022-11-20T07:41:35;2.53;;;2.33;;
12441;SDS011;6285;48.804;9.220;2022-11-20T07:44:03;2.28;;;2.00;;
12441;SDS011;6285;48.804;9.220;2022-11-20T07:46:31;3.13;;;2.15;;
12441;SDS011;6285;48.804;9.220;2022-11-20T07:48:58;2.33;;;2.10;;
12441;SDS011;6285;48.804;9.220;2022-11-20T07:51:25;2.92;;;2.33;;
12441;SDS011;6285;48.804;9.220;2022-11-20T07:53:54;3.90;;;2.35;;
12441;SDS011;6285;48.804;9.220;2022-11-20T07:56:22;3.40;;;2.50;;
12441;SDS011;6285;48.804;9.220;2022-11-20T07:58:50;3.00;;;2.58;;
12441;SDS011;6285;48.804;9.220;2022-11-20T08:01:17;2.80;;;2.50;;
12441;SDS011;6285;48.804;9.220;2022-11-20T08:03:44;3.20;;;2.63;;
12441;SDS011;6285;48.804;9.220;2022-11-20T08:06:25;2.65;;;2.13;;
12441;SDS011;6285;48.804;9.220;2022-11-20T08:08:52;3.42;;;2.50;;
12441;SDS011;6285;48.804;9.220;2022-11-20T08:11:19;3.28;;;2.65;;
12441;SDS011;6285;48.804;9.220;2022-11-20T08:14:06;2.63;;;2.40;;
12441;SDS011;6285;48.804;9.220;2022-11-20T08:16:41;3.17;;;2.17;;
12441;SDS011;6285;48.804;9.220;2022-11-20T08:19:08;3.38;;;2.10;;
12441;SDS011;6285;48.804;9.220;2022-11-20T08:21:35;2.30;;;2.10;;
12441;SDS011;6285;48.804;9.220;2022-11-20T08:24:03;3.38;;;2.10;;
12441;SDS011;6285;48.804;9.220;2022-11-20T08:26:30;2.47;;;2.03;;
12441;SDS011;6285;48.804;9.220;2022-11-20T08:28:57;2.35;;;1.80;;
12441;SDS011;6285;48.804;9.220;2022-11-20T08:31:26;2.60;;;2.15;;
12441;SDS011;6285;48.804;9.220;2022-11-20T08:33:54;4.25;;;2.40;;
12441;SDS011;6285;48.804;9.220;2022-11-20T08:36:21;3.58;;;2.00;;
12441;SDS011;6285;48.804;9.220;2022-11-20T08:38:49;3.85;;;2.08;;
12441;SDS011;6285;48.804;9.220;2022-11-20T08:41:16;2.20;;;2.00;;
12441;SDS011;6285;48.804;9.220;2022-11-20T08:43:51;1.85;;;1.65;;
12441;SDS011;6285;48.804;9.220;2022-11-20T08:46:19;2.15;;;1.85;;
12441;SDS011;6285;48.804;9.220;2022-11-20T08:48:49;2.45;;;2.00;;
12441;SDS011;6285;48.804;9.220;2022-11-20T08:51:17;2.78;;;2.10;;
12441;SDS011;6285;48.804;9.220;2022-11-20T08:53:44;1.80;;;1.70;;
12441;SDS011;6285;48.804;9.220;2022-11-20T08:56:23;1.92;;;1.38;;
12441;SDS011;6285;48.804;9.220;2022-11-20T08:58:53;2.95;;;1.85;;
12441;SDS011;6285;48.804;9.220;2022-11-20T09:04:33;2.85;;;1.55;;
12441;SDS011;6285;48.804;9.220;2022-11-20T09:07:01;3.25;;;1.27;;
12441;SDS011;6285;48.804;9.220;2022-11-20T09:09:36;3.33;;;1.60;;
12441;SDS011;6285;48.804;9.220;2022-11-20T09:12:10;4.15;;;1.60;;
12441;SDS011;6285;48.804;9.220;2022-11-20T09:14:37;3.53;;;1.23;;
12441;SDS011;6285;48.804;9.220;2022-11-20T09:17:04;2.75;;;1.50;;
12441;SDS011;6285;48.804;9.220;2022-11-20T09:19:34;1.30;;;1.20;;
12441;SDS011;6285;48.804;9.220;2022-11-20T09:22:01;1.20;;;0.90;;
12441;SDS011;6285;48.804;9.220;2022-11-20T09:24:28;1.23;;;1.10;;
12441;SDS011;6285;48.804;9.220;2022-11-20T09:26:56;1.13;;;0.90;;
12441;SDS011;6285;48.804;9.220;2022-11-20T09:29:23;1.55;;;1.10;;
12441;SDS011;6285;48.804;9.220;2022-11-20T09:31:50;0.93;;;0.85;;
12441;SDS011;6285;48.804;9.220;2022-11-20T09:34:18;1.02;;;0.82;;
12441;SDS011;6285;48.804;9.220;2022-11-20T09:36:46;1.20;;;1.00;;
12441;SDS011;6285;48.804;9.220;2022-11-20T09:39:14;2.88;;;1.00;;
12441;SDS011;6285;48.804;9.220;2022-11-20T09:41:52;1.77;;;1.50;;
12441;SDS011;6285;48.804;9.220;2022-11-20T09:44:27;1.65;;;1.23;;
12441;SDS011;6285;48.804;9.220;2022-11-20T09:47:02;1.38;;;1.05;;
12441;SDS011;6285;48.804;9.220;2022-11-20T09:49:36;1.10;;;0.90;;
12441;SDS011;6285;48.804;9.220;2022-11-20T09:52:24;1.25;;;0.80;;
12441;SDS011;6285;48.804;9.220;2022-11-20T09:54:52;1.10;;;0.80;;
12441;SDS011;6285;48.804;9.220;2022-11-20T09:57:21;1.60;;;0.70;;
12441;SDS011;6285;48.804;9.220;2022-11-20T09:59:55;1.52;;;0.80;;
12441;SDS011;6285;48.804;9.220;2022-11-20T10:02:50;1.13;;;0.70;;
12441;SDS011;6285;48.804;9.220;2022-11-20T10:05:35;2.00;;;0.63;;
12441;SDS011;6285;48.804;9.220;2022-11-20T10:08:10;1.10;;;0.70;;
12441;SDS011;6285;48.804;9.220;2022-11-20T10:10:42;1.02;;;0.90;;
12441;SDS011;6285;48.804;9.220;2022-11-20T10:13:15;0.60;;;0.60;;
12441;SDS011;6285;48.804;9.220;2022-11-20T10:15:46;0.70;;;0.70;;
12441;SDS011;6285;48.804;9.220;2022-11-20T10:38:59;2.90;;;1.00;;
12441;SDS011;6285;48.804;9.220;2022-11-20T10:42:35;0.80;;;0.80;;
12441;SDS011;6285;48.804;9.220;2022-11-20T10:45:56;0.88;;;0.80;;
12441;SDS011;6285;48.804;9.220;2022-11-20T10:49:17;1.45;;;0.77;;
12441;SDS011;6285;48.804;9.220;2022-11-20T10:52:23;1.30;;;1.20;;
12441;SDS011;6285;48.804;9.220;2022-11-20T11:10:05;2.85;;;1.20;;
12441;SDS011;6285;48.804;9.220;2022-11-20T11:20:26;1.73;;;1.15;;
12441;SDS011;6285;48.804;9.220;2022-11-20T11:27:14;1.85;;;1.45;;
12441;SDS011;6285;48.804;9.220;2022-11-20T11:33:28;3.90;;;2.00;;
12441;SDS011;6285;48.804;9.220;2022-11-20T11:36:16;2.88;;;1.90;;
12441;SDS011;6285;48.804;9.220;2022-11-20T11:41:54;2.85;;;1.60;;
12441;SDS011;6285;48.804;9.220;2022-11-20T11:44:43;2.17;;;1.60;;
12441;SDS011;6285;48.804;9.220;2022-11-20T11:47:35;1.80;;;1.60;;
12441;SDS011;6285;48.804;9.220;2022-11-20T11:50:17;3.42;;;1.60;;
12441;SDS011;6285;48.804;9.220;2022-11-20T11:53:07;4.57;;;2.30;;
12441;SDS011;6285;48.804;9.220;2022-11-20T11:56:02;3.55;;;1.85;;
12441;SDS011;6285;48.804;9.220;2022-11-20T11:58:39;2.55;;;1.80;;
12441;SDS011;6285;48.804;9.220;2022-11-20T12:02:11;2.13;;;1.92;;
12441;SDS011;6285;48.804;9.220;2022-11-20T12:04:58;2.03;;;1.70;;
12441;SDS011;6285;48.804;9.220;2022-11-20T12:07:39;1.90;;;1.60;;
12441;SDS011;6285;48.804;9.220;2022-11-20T12:10:40;3.92;;;2.90;;
12441;SDS011;6285;48.804;9.220;2022-11-20T12:17:16;3.97;;;2.28;;
12441;SDS011;6285;48.804;9.220;2022-11-20T12:20:10;2.47;;;1.50;;
12441;SDS011;6285;48.804;9.220;2022-11-20T12:23:04;2.38;;;1.50;;
12441;SDS011;6285;48.804;9.220;2022-11-20T12:36:04;2.45;;;1.50;;
12441;SDS011;6285;48.804;9.220;2022-11-20T12:39:05;3.60;;;1.52;;
12441;SDS011;6285;48.804;9.220;2022-11-20T12:41:51;2.30;;;1.30;;
12441;SDS011;6285;48.804;9.220;2022-11-20T14:25:25;2.17;;;0.95;;
12441;SDS011;6285;48.804;9.220;2022-11-20T14:27:53;0.95;;;0.70;;
12441;SDS011;6285;48.804;9.220;2022-11-20T14:30:21;2.08;;;1.20;;
12441;SDS011;6285;48.804;9.220;2022-11-20T14:32:49;1.58;;;0.90;;
12441;SDS011;6285;48.804;9.220;2022-11-20T14:35:18;4.07;;;1.30;;
12441;SDS011;6285;48.804;9.220;2022-11-20T14:37:47;2.35;;;1.10;;
12441;SDS011;6285;48.804;9.220;2022-11-20T14:40:26;1.70;;;0.93;;
12441;SDS011;6285;48.804;9.220;2022-11-20T14:42:54;2.85;;;1.30;;
12441;SDS011;6285;48.804;9.220;2022-11-20T14:45:21;2.50;;;1.33;;
12441;SDS011;6285;48.804;9.220;2022-11-20T14:47:48;3.10;;;1.70;;
12441;SDS011;6285;48.804;9.220;2022-11-20T14:50:18;3.78;;;1.38;;
12441;SDS011;6285;48.804;9.220;2022-11-20T14:52:52;2.70;;;1.20;;
12441;SDS011;6285;48.804;9.220;2022-11-20T14:55:29;3.10;;;1.38;;
12441;SDS011;6285;48.804;9.220;2022-11-20T14:57:57;2.90;;;1.63;;
12441;SDS011;6285;48.804;9.220;2022-11-20T15:00:25;3.88;;;1.83;;
12441;SDS011;6285;48.804;9.220;2022-11-20T15:02:52;3.70;;;1.80;;
12441;SDS011;6285;48.804;9.220;2022-11-20T15:05:24;2.95;;;1.58;;
12441;SDS011;6285;48.804;9.220;2022-11-20T15:08:03;4.70;;;2.90;;
12441;SDS011;6285;48.804;9.220;2022-11-20T15:10:32;2.47;;;1.50;;
12441;SDS011;6285;48.804;9.220;2022-11-20T15:13:00;2.95;;;1.63;;
12441;SDS011;6285;48.804;9.220;2022-11-20T15:15:29;2.83;;;1.70;;
12441;SDS011;6285;48.804;9.220;2022-11-20T15:17:57;3.55;;;2.10;;
12441;SDS011;6285;48.804;9.220;2022-11-20T15:20:26;10.85;;;6.95;;
12441;SDS011;6285;48.804;9.220;2022-11-20T15:22:54;10.95;;;6.57;;
12441;SDS011;6285;48.804;9.220;2022-11-20T15:25:21;2.60;;;1.77;;
12441;SDS011;6285;48.804;9.220;2022-11-20T15:27:51;5.85;;;2.90;;
12441;SDS011;6285;48.804;9.220;2022-11-20T15:30:21;12.40;;;5.50;;
12441;SDS011;6285;48.804;9.220;2022-11-20T15:32:48;13.77;;;7.93;;
12441;SDS011;6285;48.804;9.220;2022-11-20T15:35:16;16.85;;;10.48;;
12441;SDS011;6285;48.804;9.220;2022-11-20T15:37:43;10.50;;;7.18;;
12441;SDS011;6285;48.804;9.220;2022-11-20T15:40:10;18.40;;;10.85;;
12441;SDS011;6285;48.804;9.220;2022-11-20T15:42:37;37.22;;;20.25;;
12441;SDS011;6285;48.804;9.220;2022-11-20T15:45:26;19.23;;;11.38;;
12441;SDS011;6285;48.804;9.220;2022-11-20T15:47:55;5.93;;;4.30;;
12441;SDS011;6285;48.804;9.220;2022-11-20T15:50:22;11.63;;;6.25;;
12441;SDS011;6285;48.804;9.220;2022-11-20T15:52:52;15.77;;;9.65;;
12441;SDS011;6285;48.804;9.220;2022-11-20T15:55:19;18.48;;;10.20;;
12441;SDS011;6285;48.804;9.220;2022-11-20T15:57:46;13.13;;;7.00;;
12441;SDS011;6285;48.804;9.220;2022-11-20T16:00:14;3.92;;;2.63;;
12441;SDS011;6285;48.804;9.220;2022-11-20T16:02:45;6.10;;;4.20;;
12441;SDS011;6285;48.804;9.220;2022-11-20T16:05:12;17.40;;;7.45;;
12441;SDS011;6285;48.804;9.220;2022-11-20T16:07:41;10.82;;;5.35;;
12441;SDS011;6285;48.804;9.220;2022-11-20T16:10:08;9.95;;;6.00;;
12441;SDS011;6285;48.804;9.220;2022-11-20T16:12:35;19.50;;;11.70;;
12441;SDS011;6285;48.804;9.220;2022-11-20T16:15:20;9.10;;;5.72;;
12441;SDS011;6285;48.804;9.220;2022-11-20T16:18:07;14.30;;;8.77;;
12441;SDS011;6285;48.804;9.220;2022-11-20T16:20:35;13.35;;;7.57;;
12441;SDS011;6285;48.804;9.220;2022-11-20T16:23:02;17.35;;;9.45;;
12441;SDS011;6285;48.804;9.220;2022-11-20T16:25:29;15.38;;;8.05;;
12441;SDS011;6285;48.804;9.220;2022-11-20T16:27:56;14.00;;;8.50;;
12441;SDS011;6285;48.804;9.220;2022-11-20T16:30:24;16.83;;;11.82;;
12441;SDS011;6285;48.804;9.220;2022-11-20T16:32:52;11.80;;;8.73;;
12441;SDS011;6285;48.804;9.220;2022-11-20T16:35:20;8.48;;;6.28;;
12441;SDS011;6285;48.804;9.220;2022-11-20T16:37:47;7.18;;;5.50;;
12441;SDS011;6285;48.804;9.220;2022-11-20T16:40:14;12.52;;;7.82;;
12441;SDS011;6285;48.804;9.220;2022-11-20T16:42:41;15.43;;;9.23;;
12441;SDS011;6285;48.804;9.220;2022-11-20T16:45:09;23.98;;;13.82;;
12441;SDS011;6285;48.804;9.220;2022-11-20T16:47:36;23.42;;;14.50;;
12441;SDS011;6285;48.804;9.220;2022-11-20T16:50:04;30.58;;;18.15;;
12441;SDS011;6285;48.804;9.220;2022-11-20T16:52:32;17.75;;;12.00;;
12441;SDS011;6285;48.804;9.220;2022-11-20T16:55:00;6.65;;;4.18;;
12441;SDS011;6285;48.804;9.220;2022-11-20T16:57:27;11.02;;;5.97;;
12441;SDS011;6285;48.804;9.220;2022-11-20T16:59:54;15.00;;;8.52;;
12441;SDS011;6285;48.804;9.220;2022-11-20T17:02:21;35.42;;;18.55;;
12441;SDS011;6285;48.804;9.220;2022-11-20T17:04:50;26.15;;;13.73;;
12441;SDS011;6285;48.804;9.220;2022-11-20T17:07:17;17.77;;;9.90;;
12441;SDS011;6285;48.804;9.220;2022-11-20T17:09:45;12.95;;;8.13;;
12441;SDS011;6285;48.804;9.220;2022-11-20T17:12:12;16.27;;;9.73;;
12441;SDS011;6285;48.804;9.220;2022-11-20T17:14:40;16.80;;;9.63;;
12441;SDS011;6285;48.804;9.220;2022-11-20T17:17:07;12.82;;;8.65;;
12441;SDS011;6285;48.804;9.220;2022-11-20T17:19:34;27.35;;;16.85;;
12441;SDS011;6285;48.804;9.220;2022-11-20T17:22:02;42.20;;;20.60;;
12441;SDS011;6285;48.804;9.220;2022-11-20T17:24:29;22.33;;;11.25;;
12441;SDS011;6285;48.804;9.220;2022-11-20T17:26:57;28.02;;;13.68;;
12441;SDS011;6285;48.804;9.220;2022-11-20T17:29:24;26.58;;;16.58;;
12441;SDS011;6285;48.804;9.220;2022-11-20T17:31:52;17.90;;;10.48;;
12441;SDS011;6285;48.804;9.220;2022-11-20T17:34:20;11.60;;;8.40;;
12441;SDS011;6285;48.804;9.220;2022-11-20T17:36:47;14.35;;;9.65;;
12441;SDS011;6285;48.804;9.220;2022-11-20T17:39:14;20.73;;;11.88;;
12441;SDS011;6285;48.804;9.220;2022-11-20T17:41:42;14.32;;;8.82;;
12441;SDS011;6285;48.804;9.220;2022-11-20T17:44:11;22.70;;;12.40;;
12441;SDS011;6285;48.804;9.220;2022-11-20T17:46:38;11.15;;;6.97;;
12441;SDS011;6285;48.804;9.220;2022-11-20T17:49:06;16.77;;;9.93;;
12441;SDS011;6285;48.804;9.220;2022-11-20T17:51:33;17.70;;;9.25;;
12441;SDS011;6285;48.804;9.220;2022-11-20T17:54:01;13.00;;;8.63;;
12441;SDS011;6285;48.804;9.220;2022-11-20T17:56:29;6.32;;;3.90;;
12441;SDS011;6285;48.804;9.220;2022-11-20T17:59:15;4.53;;;3.83;;
12441;SDS011;6285;48.804;9.220;2022-11-20T18:01:43;6.32;;;3.55;;
12441;SDS011;6285;48.804;9.220;2022-11-20T18:04:11;5.45;;;3.60;;
12441;SDS011;6285;48.804;9.220;2022-11-20T18:06:38;6.10;;;3.30;;
12441;SDS011;6285;48.804;9.220;2022-11-20T18:09:05;5.35;;;3.03;;
12441;SDS011;6285;48.804;9.220;2022-11-20T18:11:33;4.80;;;2.70;;
12441;SDS011;6285;48.804;9.220;2022-11-20T18:14:03;3.78;;;2.85;;
12441;SDS011;6285;48.804;9.220;2022-11-20T18:16:50;4.30;;;2.83;;
12441;SDS011;6285;48.804;9.220;2022-11-20T18:19:18;6.18;;;3.78;;
12441;SDS011;6285;48.804;9.220;2022-11-20T18:21:46;4.45;;;2.90;;